Terminal Aerodrome Forecast
Issued by NWS Knoxville/Tri Cities, TN

Home | Current Version | Previous Version | Text Only | Print | Product List | Glossary On
Versions: 1 2 3 4 5 6 7 8 9 10 11 12 13 14 15
000
FTUS44 KMRX 220537
TAFTYS
TAF
KTYS 220537Z 2206/2306 VRB04KT 6SM -RA BR OVC050
     FM220800 04003KT 4SM -RA BR OVC020
     FM221300 VRB03KT 4SM -RA BR OVC010
     FM221700 06002KT 6SM BR OVC020
     FM230000 00000KT P6SM OVC035=

USA.gov is the U.S. government's official web portal to all federal, state and local government web resources and services.